sensor_id;sensor_type;location;lat;lon;timestamp;P1;durP1;ratioP1;P2;durP2;ratioP2
13816;SDS011;6979;52.116;5.286;2023-07-24T00:01:09;3.80;;;3.60;;
13816;SDS011;6979;52.116;5.286;2023-07-24T00:03:36;3.70;;;3.40;;
13816;SDS011;6979;52.116;5.286;2023-07-24T00:06:05;4.13;;;3.83;;
13816;SDS011;6979;52.116;5.286;2023-07-24T00:08:32;3.47;;;3.17;;
13816;SDS011;6979;52.116;5.286;2023-07-24T00:10:59;4.23;;;3.93;;
13816;SDS011;6979;52.116;5.286;2023-07-24T00:13:28;3.77;;;3.50;;
13816;SDS011;6979;52.116;5.286;2023-07-24T00:15:56;4.00;;;3.70;;
13816;SDS011;6979;52.116;5.286;2023-07-24T00:18:23;4.60;;;4.20;;
13816;SDS011;6979;52.116;5.286;2023-07-24T00:20:50;3.97;;;3.67;;
13816;SDS011;6979;52.116;5.286;2023-07-24T00:23:17;4.00;;;3.70;;
13816;SDS011;6979;52.116;5.286;2023-07-24T00:25:44;4.03;;;3.73;;
13816;SDS011;6979;52.116;5.286;2023-07-24T00:28:14;4.20;;;3.93;;
13816;SDS011;6979;52.116;5.286;2023-07-24T00:30:42;4.30;;;4.00;;
13816;SDS011;6979;52.116;5.286;2023-07-24T00:33:10;4.43;;;4.13;;
13816;SDS011;6979;52.116;5.286;2023-07-24T00:35:38;3.37;;;3.17;;
13816;SDS011;6979;52.116;5.286;2023-07-24T00:38:04;3.50;;;3.30;;
13816;SDS011;6979;52.116;5.286;2023-07-24T00:40:31;4.03;;;3.83;;
13816;SDS011;6979;52.116;5.286;2023-07-24T00:42:58;4.60;;;4.20;;
13816;SDS011;6979;52.116;5.286;2023-07-24T00:45:27;4.03;;;3.73;;
13816;SDS011;6979;52.116;5.286;2023-07-24T00:47:56;4.20;;;3.90;;
13816;SDS011;6979;52.116;5.286;2023-07-24T00:50:27;4.10;;;3.80;;
13816;SDS011;6979;52.116;5.286;2023-07-24T00:52:56;4.40;;;4.10;;
13816;SDS011;6979;52.116;5.286;2023-07-24T00:55:24;4.37;;;3.97;;
13816;SDS011;6979;52.116;5.286;2023-07-24T00:57:54;3.83;;;3.63;;
13816;SDS011;6979;52.116;5.286;2023-07-24T01:00:24;3.93;;;3.73;;
13816;SDS011;6979;52.116;5.286;2023-07-24T01:02:51;4.00;;;3.70;;
13816;SDS011;6979;52.116;5.286;2023-07-24T01:05:19;4.20;;;3.83;;
13816;SDS011;6979;52.116;5.286;2023-07-24T01:07:51;3.67;;;3.47;;
13816;SDS011;6979;52.116;5.286;2023-07-24T01:10:18;4.13;;;3.83;;
13816;SDS011;6979;52.116;5.286;2023-07-24T01:12:49;4.20;;;3.90;;
13816;SDS011;6979;52.116;5.286;2023-07-24T01:15:23;3.73;;;3.53;;
13816;SDS011;6979;52.116;5.286;2023-07-24T01:17:56;4.10;;;3.80;;
13816;SDS011;6979;52.116;5.286;2023-07-24T01:20:26;3.83;;;3.53;;
13816;SDS011;6979;52.116;5.286;2023-07-24T01:23:05;3.47;;;3.27;;
13816;SDS011;6979;52.116;5.286;2023-07-24T01:25:49;3.80;;;3.50;;
13816;SDS011;6979;52.116;5.286;2023-07-24T01:28:20;3.83;;;3.53;;
13816;SDS011;6979;52.116;5.286;2023-07-24T01:30:46;3.57;;;3.37;;
13816;SDS011;6979;52.116;5.286;2023-07-24T01:33:13;3.43;;;3.23;;
13816;SDS011;6979;52.116;5.286;2023-07-24T01:35:45;3.37;;;3.07;;
13816;SDS011;6979;52.116;5.286;2023-07-24T01:38:16;4.30;;;3.87;;
13816;SDS011;6979;52.116;5.286;2023-07-24T01:40:43;4.13;;;3.83;;
13816;SDS011;6979;52.116;5.286;2023-07-24T01:43:12;4.17;;;3.77;;
13816;SDS011;6979;52.116;5.286;2023-07-24T01:45:39;3.50;;;3.20;;
13816;SDS011;6979;52.116;5.286;2023-07-24T01:48:06;3.63;;;3.33;;
13816;SDS011;6979;52.116;5.286;2023-07-24T01:50:33;3.33;;;3.13;;
13816;SDS011;6979;52.116;5.286;2023-07-24T01:53:00;3.73;;;3.53;;
13816;SDS011;6979;52.116;5.286;2023-07-24T01:55:28;3.30;;;3.10;;
13816;SDS011;6979;52.116;5.286;2023-07-24T01:57:55;3.60;;;3.40;;
13816;SDS011;6979;52.116;5.286;2023-07-24T02:00:23;3.60;;;3.30;;
13816;SDS011;6979;52.116;5.286;2023-07-24T02:02:56;3.60;;;3.40;;
13816;SDS011;6979;52.116;5.286;2023-07-24T02:05:23;4.13;;;3.83;;
13816;SDS011;6979;52.116;5.286;2023-07-24T02:07:50;3.30;;;3.10;;
13816;SDS011;6979;52.116;5.286;2023-07-24T02:10:17;3.30;;;3.10;;
13816;SDS011;6979;52.116;5.286;2023-07-24T02:12:44;3.53;;;3.33;;
13816;SDS011;6979;52.116;5.286;2023-07-24T02:15:11;3.77;;;3.50;;
13816;SDS011;6979;52.116;5.286;2023-07-24T02:17:40;3.97;;;3.77;;
13816;SDS011;6979;52.116;5.286;2023-07-24T02:20:09;4.30;;;3.87;;
13816;SDS011;6979;52.116;5.286;2023-07-24T02:22:36;5.40;;;3.10;;
13816;SDS011;6979;52.116;5.286;2023-07-24T02:25:05;3.40;;;3.20;;
13816;SDS011;6979;52.116;5.286;2023-07-24T02:27:32;3.27;;;3.07;;
13816;SDS011;6979;52.116;5.286;2023-07-24T02:30:00;4.03;;;3.73;;
13816;SDS011;6979;52.116;5.286;2023-07-24T02:32:32;3.80;;;3.60;;
13816;SDS011;6979;52.116;5.286;2023-07-24T02:35:04;3.90;;;3.60;;
13816;SDS011;6979;52.116;5.286;2023-07-24T02:37:32;3.83;;;3.60;;
13816;SDS011;6979;52.116;5.286;2023-07-24T02:39:59;3.60;;;3.33;;
13816;SDS011;6979;52.116;5.286;2023-07-24T02:42:26;3.70;;;3.50;;
13816;SDS011;6979;52.116;5.286;2023-07-24T02:44:53;3.90;;;3.67;;
13816;SDS011;6979;52.116;5.286;2023-07-24T02:47:20;3.67;;;3.47;;
13816;SDS011;6979;52.116;5.286;2023-07-24T02:49:49;3.73;;;3.50;;
13816;SDS011;6979;52.116;5.286;2023-07-24T02:52:18;4.17;;;3.97;;
13816;SDS011;6979;52.116;5.286;2023-07-24T02:54:45;3.53;;;3.33;;
13816;SDS011;6979;52.116;5.286;2023-07-24T02:57:14;3.77;;;3.47;;
13816;SDS011;6979;52.116;5.286;2023-07-24T02:59:41;4.90;;;4.30;;
13816;SDS011;6979;52.116;5.286;2023-07-24T03:02:08;4.10;;;3.80;;
13816;SDS011;6979;52.116;5.286;2023-07-24T03:04:35;3.70;;;3.40;;
13816;SDS011;6979;52.116;5.286;2023-07-24T03:07:02;3.70;;;3.50;;
13816;SDS011;6979;52.116;5.286;2023-07-24T03:09:30;4.30;;;4.00;;
13816;SDS011;6979;52.116;5.286;2023-07-24T03:11:57;3.63;;;3.43;;
13816;SDS011;6979;52.116;5.286;2023-07-24T03:14:24;3.53;;;3.33;;
13816;SDS011;6979;52.116;5.286;2023-07-24T03:16:51;4.43;;;4.13;;
13816;SDS011;6979;52.116;5.286;2023-07-24T03:19:18;4.10;;;3.90;;
13816;SDS011;6979;52.116;5.286;2023-07-24T03:21:45;4.23;;;3.93;;
13816;SDS011;6979;52.116;5.286;2023-07-24T03:24:12;3.67;;;3.47;;
13816;SDS011;6979;52.116;5.286;2023-07-24T03:26:40;4.80;;;4.40;;
13816;SDS011;6979;52.116;5.286;2023-07-24T03:29:07;4.30;;;4.00;;
13816;SDS011;6979;52.116;5.286;2023-07-24T03:31:34;3.87;;;3.67;;
13816;SDS011;6979;52.116;5.286;2023-07-24T03:34:01;4.70;;;4.40;;
13816;SDS011;6979;52.116;5.286;2023-07-24T03:36:28;4.77;;;4.47;;
13816;SDS011;6979;52.116;5.286;2023-07-24T03:38:55;4.83;;;4.43;;
13816;SDS011;6979;52.116;5.286;2023-07-24T03:41:22;4.43;;;4.13;;
13816;SDS011;6979;52.116;5.286;2023-07-24T03:43:51;5.07;;;4.67;;
13816;SDS011;6979;52.116;5.286;2023-07-24T03:46:18;5.13;;;4.83;;
13816;SDS011;6979;52.116;5.286;2023-07-24T03:48:45;5.00;;;4.70;;
13816;SDS011;6979;52.116;5.286;2023-07-24T03:51:12;4.90;;;4.60;;
13816;SDS011;6979;52.116;5.286;2023-07-24T03:53:39;5.13;;;4.63;;
13816;SDS011;6979;52.116;5.286;2023-07-24T03:56:06;5.20;;;4.80;;
13816;SDS011;6979;52.116;5.286;2023-07-24T03:58:33;5.83;;;5.33;;
13816;SDS011;6979;52.116;5.286;2023-07-24T04:01:01;5.70;;;5.20;;
13816;SDS011;6979;52.116;5.286;2023-07-24T04:03:28;5.03;;;4.70;;
13816;SDS011;6979;52.116;5.286;2023-07-24T04:05:55;6.37;;;4.97;;
13816;SDS011;6979;52.116;5.286;2023-07-24T04:08:22;4.83;;;4.43;;
13816;SDS011;6979;52.116;5.286;2023-07-24T04:10:49;4.50;;;4.20;;
13816;SDS011;6979;52.116;5.286;2023-07-24T04:13:16;5.40;;;4.97;;
13816;SDS011;6979;52.116;5.286;2023-07-24T04:15:43;4.67;;;4.37;;
13816;SDS011;6979;52.116;5.286;2023-07-24T04:18:11;5.77;;;5.37;;
13816;SDS011;6979;52.116;5.286;2023-07-24T04:20:39;5.10;;;4.70;;
13816;SDS011;6979;52.116;5.286;2023-07-24T04:23:05;5.53;;;5.07;;
13816;SDS011;6979;52.116;5.286;2023-07-24T04:25:32;4.97;;;4.67;;
13816;SDS011;6979;52.116;5.286;2023-07-24T04:27:59;5.60;;;5.20;;
13816;SDS011;6979;52.116;5.286;2023-07-24T04:30:26;5.97;;;5.50;;
13816;SDS011;6979;52.116;5.286;2023-07-24T04:32:53;5.33;;;5.00;;
13816;SDS011;6979;52.116;5.286;2023-07-24T04:35:21;5.90;;;5.40;;
13816;SDS011;6979;52.116;5.286;2023-07-24T04:37:48;5.97;;;5.57;;
13816;SDS011;6979;52.116;5.286;2023-07-24T04:40:16;5.40;;;5.00;;
13816;SDS011;6979;52.116;5.286;2023-07-24T04:42:43;5.37;;;4.97;;
13816;SDS011;6979;52.116;5.286;2023-07-24T04:45:10;4.90;;;4.50;;
13816;SDS011;6979;52.116;5.286;2023-07-24T04:47:37;5.57;;;5.17;;
13816;SDS011;6979;52.116;5.286;2023-07-24T04:50:04;6.00;;;5.50;;
13816;SDS011;6979;52.116;5.286;2023-07-24T04:52:33;5.43;;;4.93;;
13816;SDS011;6979;52.116;5.286;2023-07-24T04:55:00;5.93;;;5.47;;
13816;SDS011;6979;52.116;5.286;2023-07-24T04:57:27;5.10;;;4.60;;
13816;SDS011;6979;52.116;5.286;2023-07-24T04:59:54;5.80;;;5.20;;
13816;SDS011;6979;52.116;5.286;2023-07-24T05:02:21;6.10;;;5.47;;
13816;SDS011;6979;52.116;5.286;2023-07-24T05:04:48;5.80;;;5.13;;
13816;SDS011;6979;52.116;5.286;2023-07-24T05:07:15;5.90;;;5.50;;
13816;SDS011;6979;52.116;5.286;2023-07-24T05:09:46;5.90;;;5.50;;
13816;SDS011;6979;52.116;5.286;2023-07-24T05:12:13;6.50;;;5.93;;
13816;SDS011;6979;52.116;5.286;2023-07-24T05:14:40;5.97;;;5.57;;
13816;SDS011;6979;52.116;5.286;2023-07-24T05:17:07;6.10;;;5.70;;
13816;SDS011;6979;52.116;5.286;2023-07-24T05:19:33;5.97;;;5.47;;
13816;SDS011;6979;52.116;5.286;2023-07-24T05:22:00;6.70;;;6.10;;
13816;SDS011;6979;52.116;5.286;2023-07-24T05:24:28;5.73;;;5.23;;
13816;SDS011;6979;52.116;5.286;2023-07-24T05:26:56;6.87;;;6.27;;
13816;SDS011;6979;52.116;5.286;2023-07-24T05:29:23;6.43;;;5.83;;
13816;SDS011;6979;52.116;5.286;2023-07-24T05:31:50;6.30;;;5.80;;
13816;SDS011;6979;52.116;5.286;2023-07-24T05:34:17;6.03;;;5.53;;
13816;SDS011;6979;52.116;5.286;2023-07-24T05:36:43;6.20;;;5.70;;
13816;SDS011;6979;52.116;5.286;2023-07-24T05:39:10;6.23;;;5.57;;
13816;SDS011;6979;52.116;5.286;2023-07-24T05:41:37;6.23;;;5.73;;
13816;SDS011;6979;52.116;5.286;2023-07-24T05:44:06;6.17;;;5.70;;
13816;SDS011;6979;52.116;5.286;2023-07-24T05:46:33;5.50;;;5.10;;
13816;SDS011;6979;52.116;5.286;2023-07-24T05:48:59;5.27;;;4.77;;
13816;SDS011;6979;52.116;5.286;2023-07-24T05:51:26;5.47;;;5.07;;
13816;SDS011;6979;52.116;5.286;2023-07-24T05:53:54;6.57;;;6.00;;
13816;SDS011;6979;52.116;5.286;2023-07-24T05:56:21;6.43;;;5.80;;
13816;SDS011;6979;52.116;5.286;2023-07-24T05:58:47;7.33;;;6.63;;
13816;SDS011;6979;52.116;5.286;2023-07-24T06:01:16;5.37;;;4.97;;
13816;SDS011;6979;52.116;5.286;2023-07-24T06:03:43;6.20;;;5.70;;
13816;SDS011;6979;52.116;5.286;2023-07-24T06:06:10;6.30;;;5.70;;
13816;SDS011;6979;52.116;5.286;2023-07-24T06:08:37;6.60;;;6.00;;
13816;SDS011;6979;52.116;5.286;2023-07-24T06:11:04;6.20;;;5.70;;
13816;SDS011;6979;52.116;5.286;2023-07-24T06:13:31;6.03;;;5.43;;
13816;SDS011;6979;52.116;5.286;2023-07-24T06:15:57;5.70;;;5.30;;
13816;SDS011;6979;52.116;5.286;2023-07-24T06:18:26;5.93;;;4.97;;
13816;SDS011;6979;52.116;5.286;2023-07-24T06:20:53;6.03;;;5.53;;
13816;SDS011;6979;52.116;5.286;2023-07-24T06:23:20;5.80;;;5.30;;
13816;SDS011;6979;52.116;5.286;2023-07-24T06:25:47;6.43;;;5.83;;
13816;SDS011;6979;52.116;5.286;2023-07-24T06:28:14;5.83;;;5.33;;
13816;SDS011;6979;52.116;5.286;2023-07-24T06:30:41;7.33;;;5.47;;
13816;SDS011;6979;52.116;5.286;2023-07-24T06:33:07;6.20;;;5.63;;
13816;SDS011;6979;52.116;5.286;2023-07-24T06:35:36;8.00;;;6.03;;
13816;SDS011;6979;52.116;5.286;2023-07-24T06:38:06;6.40;;;5.50;;
13816;SDS011;6979;52.116;5.286;2023-07-24T06:40:33;7.17;;;6.13;;
13816;SDS011;6979;52.116;5.286;2023-07-24T06:43:00;7.90;;;5.40;;
13816;SDS011;6979;52.116;5.286;2023-07-24T06:45:27;5.73;;;5.20;;
13816;SDS011;6979;52.116;5.286;2023-07-24T06:47:54;6.27;;;5.67;;
13816;SDS011;6979;52.116;5.286;2023-07-24T06:50:21;5.57;;;5.07;;
13816;SDS011;6979;52.116;5.286;2023-07-24T06:52:49;5.93;;;5.43;;
13816;SDS011;6979;52.116;5.286;2023-07-24T06:55:18;7.13;;;6.37;;
13816;SDS011;6979;52.116;5.286;2023-07-24T06:57:45;10.13;;;5.70;;
13816;SDS011;6979;52.116;5.286;2023-07-24T07:00:13;5.47;;;5.03;;
13816;SDS011;6979;52.116;5.286;2023-07-24T07:02:43;6.13;;;5.63;;
13816;SDS011;6979;52.116;5.286;2023-07-24T07:05:10;7.27;;;5.53;;
13816;SDS011;6979;52.116;5.286;2023-07-24T07:07:37;6.13;;;5.33;;
13816;SDS011;6979;52.116;5.286;2023-07-24T07:10:06;6.33;;;5.87;;
13816;SDS011;6979;52.116;5.286;2023-07-24T07:12:33;6.10;;;5.60;;
13816;SDS011;6979;52.116;5.286;2023-07-24T07:15:00;6.33;;;5.60;;
13816;SDS011;6979;52.116;5.286;2023-07-24T07:17:27;5.47;;;4.97;;
13816;SDS011;6979;52.116;5.286;2023-07-24T07:19:54;6.17;;;5.37;;
13816;SDS011;6979;52.116;5.286;2023-07-24T07:22:22;6.63;;;5.87;;
13816;SDS011;6979;52.116;5.286;2023-07-24T07:24:49;5.50;;;5.10;;
13816;SDS011;6979;52.116;5.286;2023-07-24T07:27:20;6.37;;;5.13;;
13816;SDS011;6979;52.116;5.286;2023-07-24T07:29:47;7.07;;;5.30;;
13816;SDS011;6979;52.116;5.286;2023-07-24T07:32:14;6.20;;;5.57;;
13816;SDS011;6979;52.116;5.286;2023-07-24T07:34:41;6.30;;;5.73;;
13816;SDS011;6979;52.116;5.286;2023-07-24T07:37:08;5.87;;;5.37;;
13816;SDS011;6979;52.116;5.286;2023-07-24T07:39:35;6.67;;;5.57;;
13816;SDS011;6979;52.116;5.286;2023-07-24T07:42:02;5.87;;;5.37;;
13816;SDS011;6979;52.116;5.286;2023-07-24T07:44:31;6.00;;;5.50;;
13816;SDS011;6979;52.116;5.286;2023-07-24T07:46:58;5.43;;;4.77;;
13816;SDS011;6979;52.116;5.286;2023-07-24T07:49:24;6.00;;;5.40;;
13816;SDS011;6979;52.116;5.286;2023-07-24T07:51:51;5.93;;;5.27;;
13816;SDS011;6979;52.116;5.286;2023-07-24T07:54:18;5.87;;;5.23;;
13816;SDS011;6979;52.116;5.286;2023-07-24T07:56:45;5.60;;;5.10;;
13816;SDS011;6979;52.116;5.286;2023-07-24T07:59:12;6.03;;;5.60;;
13816;SDS011;6979;52.116;5.286;2023-07-24T08:01:40;5.40;;;5.00;;
13816;SDS011;6979;52.116;5.286;2023-07-24T08:04:07;5.67;;;5.17;;
13816;SDS011;6979;52.116;5.286;2023-07-24T08:06:34;5.90;;;4.73;;
13816;SDS011;6979;52.116;5.286;2023-07-24T08:09:01;5.43;;;4.57;;
13816;SDS011;6979;52.116;5.286;2023-07-24T08:11:28;7.50;;;5.50;;
13816;SDS011;6979;52.116;5.286;2023-07-24T08:13:55;6.17;;;5.07;;
13816;SDS011;6979;52.116;5.286;2023-07-24T08:16:22;6.67;;;6.10;;
13816;SDS011;6979;52.116;5.286;2023-07-24T08:18:50;6.57;;;5.97;;
13816;SDS011;6979;52.116;5.286;2023-07-24T08:21:17;5.90;;;5.37;;
13816;SDS011;6979;52.116;5.286;2023-07-24T08:23:44;5.43;;;4.87;;
13816;SDS011;6979;52.116;5.286;2023-07-24T08:26:11;4.80;;;4.43;;
13816;SDS011;6979;52.116;5.286;2023-07-24T08:28:38;5.67;;;4.80;;
13816;SDS011;6979;52.116;5.286;2023-07-24T08:31:07;5.67;;;5.17;;
13816;SDS011;6979;52.116;5.286;2023-07-24T08:33:34;5.03;;;4.63;;
13816;SDS011;6979;52.116;5.286;2023-07-24T08:36:04;6.80;;;6.10;;
13816;SDS011;6979;52.116;5.286;2023-07-24T08:38:32;6.00;;;5.37;;
13816;SDS011;6979;52.116;5.286;2023-07-24T08:40:59;6.17;;;5.57;;
13816;SDS011;6979;52.116;5.286;2023-07-24T08:43:27;7.33;;;6.73;;
13816;SDS011;6979;52.116;5.286;2023-07-24T08:45:55;5.40;;;4.90;;
13816;SDS011;6979;52.116;5.286;2023-07-24T08:48:24;8.40;;;5.43;;
13816;SDS011;6979;52.116;5.286;2023-07-24T08:50:52;6.20;;;5.60;;
13816;SDS011;6979;52.116;5.286;2023-07-24T08:53:20;5.93;;;5.43;;
13816;SDS011;6979;52.116;5.286;2023-07-24T08:55:48;5.70;;;5.17;;
13816;SDS011;6979;52.116;5.286;2023-07-24T08:58:15;8.33;;;5.87;;
13816;SDS011;6979;52.116;5.286;2023-07-24T09:00:42;6.07;;;5.57;;
13816;SDS011;6979;52.116;5.286;2023-07-24T09:03:09;6.10;;;5.50;;
13816;SDS011;6979;52.116;5.286;2023-07-24T09:05:37;5.83;;;5.33;;
13816;SDS011;6979;52.116;5.286;2023-07-24T09:08:04;7.33;;;6.70;;
13816;SDS011;6979;52.116;5.286;2023-07-24T09:10:32;6.67;;;6.07;;
13816;SDS011;6979;52.116;5.286;2023-07-24T09:12:59;7.50;;;7.00;;
13816;SDS011;6979;52.116;5.286;2023-07-24T09:15:29;6.10;;;5.60;;
13816;SDS011;6979;52.116;5.286;2023-07-24T09:17:56;6.90;;;5.50;;
13816;SDS011;6979;52.116;5.286;2023-07-24T09:20:23;5.20;;;4.80;;
13816;SDS011;6979;52.116;5.286;2023-07-24T09:22:52;6.40;;;5.77;;
13816;SDS011;6979;52.116;5.286;2023-07-24T09:25:29;5.10;;;4.70;;
13816;SDS011;6979;52.116;5.286;2023-07-24T09:27:58;8.43;;;5.63;;
13816;SDS011;6979;52.116;5.286;2023-07-24T09:30:26;5.63;;;5.13;;
13816;SDS011;6979;52.116;5.286;2023-07-24T09:32:53;6.30;;;5.27;;
13816;SDS011;6979;52.116;5.286;2023-07-24T09:35:20;6.63;;;6.13;;
13816;SDS011;6979;52.116;5.286;2023-07-24T09:38:00;11.40;;;7.03;;
13816;SDS011;6979;52.116;5.286;2023-07-24T09:40:36;6.10;;;5.60;;
13816;SDS011;6979;52.116;5.286;2023-07-24T09:43:14;5.70;;;5.30;;
13816;SDS011;6979;52.116;5.286;2023-07-24T09:45:42;6.80;;;5.97;;
13816;SDS011;6979;52.116;5.286;2023-07-24T09:48:10;7.70;;;7.00;;
13816;SDS011;6979;52.116;5.286;2023-07-24T09:50:40;7.07;;;6.43;;
13816;SDS011;6979;52.116;5.286;2023-07-24T09:53:10;9.37;;;5.87;;
13816;SDS011;6979;52.116;5.286;2023-07-24T09:55:43;6.83;;;6.33;;
13816;SDS011;6979;52.116;5.286;2023-07-24T09:58:17;6.90;;;6.30;;
13816;SDS011;6979;52.116;5.286;2023-07-24T10:00:46;6.20;;;5.70;;
13816;SDS011;6979;52.116;5.286;2023-07-24T10:03:15;6.57;;;5.97;;
13816;SDS011;6979;52.116;5.286;2023-07-24T10:05:43;6.03;;;5.43;;
13816;SDS011;6979;52.116;5.286;2023-07-24T10:08:10;5.90;;;5.40;;
13816;SDS011;6979;52.116;5.286;2023-07-24T10:10:38;5.37;;;4.97;;
13816;SDS011;6979;52.116;5.286;2023-07-24T10:13:05;5.77;;;5.27;;
13816;SDS011;6979;52.116;5.286;2023-07-24T10:15:37;6.00;;;5.40;;
13816;SDS011;6979;52.116;5.286;2023-07-24T10:18:05;5.60;;;5.00;;
13816;SDS011;6979;52.116;5.286;2023-07-24T10:20:33;5.20;;;4.70;;
13816;SDS011;6979;52.116;5.286;2023-07-24T10:23:01;6.80;;;5.00;;
13816;SDS011;6979;52.116;5.286;2023-07-24T10:25:29;5.90;;;5.37;;
13816;SDS011;6979;52.116;5.286;2023-07-24T10:28:01;5.27;;;4.80;;
13816;SDS011;6979;52.116;5.286;2023-07-24T10:30:32;4.60;;;4.20;;
13816;SDS011;6979;52.116;5.286;2023-07-24T10:33:04;7.97;;;5.73;;
13816;SDS011;6979;52.116;5.286;2023-07-24T10:35:39;4.90;;;4.40;;
13816;SDS011;6979;52.116;5.286;2023-07-24T10:38:07;6.20;;;5.70;;
13816;SDS011;6979;52.116;5.286;2023-07-24T10:40:35;6.07;;;5.47;;
13816;SDS011;6979;52.116;5.286;2023-07-24T10:43:20;7.30;;;5.80;;
13816;SDS011;6979;52.116;5.286;2023-07-24T10:45:50;5.50;;;5.00;;
13816;SDS011;6979;52.116;5.286;2023-07-24T10:48:20;6.20;;;5.63;;
13816;SDS011;6979;52.116;5.286;2023-07-24T10:50:49;5.53;;;5.03;;
13816;SDS011;6979;52.116;5.286;2023-07-24T10:53:17;5.90;;;5.40;;
13816;SDS011;6979;52.116;5.286;2023-07-24T10:55:45;4.37;;;4.07;;
13816;SDS011;6979;52.116;5.286;2023-07-24T10:58:15;5.93;;;5.23;;
13816;SDS011;6979;52.116;5.286;2023-07-24T11:00:42;6.03;;;5.50;;
13816;SDS011;6979;52.116;5.286;2023-07-24T11:03:11;4.17;;;3.77;;
13816;SDS011;6979;52.116;5.286;2023-07-24T11:05:40;5.07;;;4.70;;
13816;SDS011;6979;52.116;5.286;2023-07-24T11:08:08;4.70;;;4.30;;
13816;SDS011;6979;52.116;5.286;2023-07-24T11:10:39;7.13;;;5.13;;
13816;SDS011;6979;52.116;5.286;2023-07-24T11:13:11;4.37;;;4.07;;
13816;SDS011;6979;52.116;5.286;2023-07-24T11:15:38;4.30;;;4.00;;
13816;SDS011;6979;52.116;5.286;2023-07-24T11:18:05;4.67;;;4.27;;
13816;SDS011;6979;52.116;5.286;2023-07-24T11:20:33;5.50;;;4.93;;
13816;SDS011;6979;52.116;5.286;2023-07-24T11:23:05;4.67;;;4.33;;
13816;SDS011;6979;52.116;5.286;2023-07-24T11:25:32;6.43;;;5.83;;
13816;SDS011;6979;52.116;5.286;2023-07-24T11:27:59;5.17;;;4.77;;
13816;SDS011;6979;52.116;5.286;2023-07-24T11:30:27;5.90;;;5.30;;
13816;SDS011;6979;52.116;5.286;2023-07-24T11:32:54;4.83;;;4.43;;
13816;SDS011;6979;52.116;5.286;2023-07-24T11:35:24;4.03;;;3.73;;
13816;SDS011;6979;52.116;5.286;2023-07-24T11:37:52;5.27;;;4.10;;
13816;SDS011;6979;52.116;5.286;2023-07-24T11:40:20;4.07;;;3.67;;
13816;SDS011;6979;52.116;5.286;2023-07-24T11:42:47;5.73;;;5.33;;
13816;SDS011;6979;52.116;5.286;2023-07-24T11:45:15;6.67;;;6.07;;
13816;SDS011;6979;52.116;5.286;2023-07-24T11:47:42;6.77;;;5.90;;
13816;SDS011;6979;52.116;5.286;2023-07-24T11:50:10;7.53;;;6.70;;
13816;SDS011;6979;52.116;5.286;2023-07-24T11:52:38;7.37;;;6.00;;
13816;SDS011;6979;52.116;5.286;2023-07-24T11:55:06;7.00;;;5.03;;
13816;SDS011;6979;52.116;5.286;2023-07-24T11:57:35;4.40;;;4.00;;
13816;SDS011;6979;52.116;5.286;2023-07-24T12:00:03;4.13;;;3.83;;
13816;SDS011;6979;52.116;5.286;2023-07-24T12:02:33;4.97;;;4.57;;
13816;SDS011;6979;52.116;5.286;2023-07-24T12:05:00;4.77;;;4.37;;
13816;SDS011;6979;52.116;5.286;2023-07-24T12:07:31;5.63;;;5.13;;
13816;SDS011;6979;52.116;5.286;2023-07-24T12:09:59;5.83;;;4.70;;
13816;SDS011;6979;52.116;5.286;2023-07-24T12:12:37;5.40;;;4.93;;
13816;SDS011;6979;52.116;5.286;2023-07-24T12:15:05;5.13;;;4.67;;
13816;SDS011;6979;52.116;5.286;2023-07-24T12:17:33;4.73;;;4.40;;
13816;SDS011;6979;52.116;5.286;2023-07-24T12:20:02;4.37;;;3.97;;
13816;SDS011;6979;52.116;5.286;2023-07-24T12:22:30;5.10;;;4.70;;
13816;SDS011;6979;52.116;5.286;2023-07-24T12:25:00;4.70;;;4.23;;
13816;SDS011;6979;52.116;5.286;2023-07-24T12:27:28;6.53;;;5.67;;
13816;SDS011;6979;52.116;5.286;2023-07-24T12:29:56;5.43;;;4.93;;
13816;SDS011;6979;52.116;5.286;2023-07-24T12:32:23;6.10;;;5.70;;
13816;SDS011;6979;52.116;5.286;2023-07-24T12:34:51;5.10;;;4.67;;
13816;SDS011;6979;52.116;5.286;2023-07-24T12:37:19;5.33;;;4.83;;
13816;SDS011;6979;52.116;5.286;2023-07-24T12:39:49;5.00;;;4.37;;
13816;SDS011;6979;52.116;5.286;2023-07-24T12:42:16;4.50;;;4.20;;
13816;SDS011;6979;52.116;5.286;2023-07-24T12:44:45;5.27;;;3.90;;
13816;SDS011;6979;52.116;5.286;2023-07-24T12:47:13;4.53;;;4.23;;
13816;SDS011;6979;52.116;5.286;2023-07-24T12:49:40;5.10;;;4.70;;
13816;SDS011;6979;52.116;5.286;2023-07-24T12:52:08;7.03;;;6.43;;
13816;SDS011;6979;52.116;5.286;2023-07-24T12:54:41;6.00;;;5.50;;
13816;SDS011;6979;52.116;5.286;2023-07-24T12:57:08;5.50;;;5.10;;
13816;SDS011;6979;52.116;5.286;2023-07-24T12:59:37;6.40;;;5.63;;
13816;SDS011;6979;52.116;5.286;2023-07-24T13:02:04;6.73;;;5.97;;
13816;SDS011;6979;52.116;5.286;2023-07-24T13:04:33;6.20;;;5.60;;
13816;SDS011;6979;52.116;5.286;2023-07-24T13:07:02;6.23;;;5.73;;
13816;SDS011;6979;52.116;5.286;2023-07-24T13:09:30;7.27;;;6.57;;
13816;SDS011;6979;52.116;5.286;2023-07-24T13:11:56;6.70;;;6.10;;
13816;SDS011;6979;52.116;5.286;2023-07-24T13:14:23;7.03;;;6.50;;
13816;SDS011;6979;52.116;5.286;2023-07-24T13:16:50;6.83;;;6.13;;
13816;SDS011;6979;52.116;5.286;2023-07-24T13:19:17;7.03;;;6.47;;
13816;SDS011;6979;52.116;5.286;2023-07-24T13:21:45;7.33;;;6.80;;
13816;SDS011;6979;52.116;5.286;2023-07-24T13:24:12;7.40;;;6.40;;
13816;SDS011;6979;52.116;5.286;2023-07-24T13:26:39;6.77;;;6.17;;
13816;SDS011;6979;52.116;5.286;2023-07-24T13:29:07;7.40;;;6.80;;
13816;SDS011;6979;52.116;5.286;2023-07-24T13:31:37;7.53;;;6.93;;
13816;SDS011;6979;52.116;5.286;2023-07-24T13:34:05;7.67;;;7.07;;
13816;SDS011;6979;52.116;5.286;2023-07-24T13:36:33;6.83;;;6.33;;
13816;SDS011;6979;52.116;5.286;2023-07-24T13:39:02;7.73;;;7.13;;
13816;SDS011;6979;52.116;5.286;2023-07-24T13:41:29;7.97;;;7.27;;
13816;SDS011;6979;52.116;5.286;2023-07-24T13:43:55;8.33;;;7.77;;
13816;SDS011;6979;52.116;5.286;2023-07-24T13:46:23;7.37;;;6.87;;
13816;SDS011;6979;52.116;5.286;2023-07-24T13:48:50;7.20;;;6.70;;
13816;SDS011;6979;52.116;5.286;2023-07-24T13:51:17;7.63;;;6.83;;
13816;SDS011;6979;52.116;5.286;2023-07-24T13:53:43;6.30;;;5.90;;
13816;SDS011;6979;52.116;5.286;2023-07-24T13:56:14;6.17;;;5.67;;
13816;SDS011;6979;52.116;5.286;2023-07-24T13:58:42;5.30;;;4.90;;
13816;SDS011;6979;52.116;5.286;2023-07-24T14:01:09;4.30;;;4.00;;
13816;SDS011;6979;52.116;5.286;2023-07-24T14:03:36;4.27;;;3.97;;
13816;SDS011;6979;52.116;5.286;2023-07-24T14:06:03;3.77;;;3.57;;
13816;SDS011;6979;52.116;5.286;2023-07-24T14:08:30;3.10;;;2.90;;
13816;SDS011;6979;52.116;5.286;2023-07-24T14:10:57;2.97;;;2.77;;
13816;SDS011;6979;52.116;5.286;2023-07-24T14:13:25;2.37;;;2.17;;
13816;SDS011;6979;52.116;5.286;2023-07-24T14:15:52;3.20;;;2.80;;
13816;SDS011;6979;52.116;5.286;2023-07-24T14:18:19;5.43;;;2.90;;
13816;SDS011;6979;52.116;5.286;2023-07-24T14:20:49;3.43;;;2.90;;
13816;SDS011;6979;52.116;5.286;2023-07-24T14:23:22;2.60;;;2.50;;
13816;SDS011;6979;52.116;5.286;2023-07-24T14:25:49;2.00;;;1.90;;
13816;SDS011;6979;52.116;5.286;2023-07-24T14:28:16;2.53;;;2.20;;
13816;SDS011;6979;52.116;5.286;2023-07-24T14:30:44;2.13;;;2.00;;
13816;SDS011;6979;52.116;5.286;2023-07-24T14:33:11;2.50;;;2.40;;
13816;SDS011;6979;52.116;5.286;2023-07-24T14:35:38;2.20;;;2.10;;
13816;SDS011;6979;52.116;5.286;2023-07-24T14:38:05;2.43;;;2.10;;
13816;SDS011;6979;52.116;5.286;2023-07-24T14:40:32;2.87;;;2.57;;
13816;SDS011;6979;52.116;5.286;2023-07-24T14:43:01;3.93;;;2.50;;
13816;SDS011;6979;52.116;5.286;2023-07-24T14:45:28;2.50;;;2.30;;
13816;SDS011;6979;52.116;5.286;2023-07-24T14:47:56;2.97;;;2.60;;
13816;SDS011;6979;52.116;5.286;2023-07-24T14:50:23;2.93;;;2.20;;
13816;SDS011;6979;52.116;5.286;2023-07-24T14:52:50;6.23;;;2.47;;
13816;SDS011;6979;52.116;5.286;2023-07-24T14:55:18;2.30;;;2.10;;
13816;SDS011;6979;52.116;5.286;2023-07-24T14:57:45;3.77;;;2.43;;
13816;SDS011;6979;52.116;5.286;2023-07-24T15:00:13;4.87;;;2.73;;
13816;SDS011;6979;52.116;5.286;2023-07-24T15:02:41;2.93;;;1.93;;
13816;SDS011;6979;52.116;5.286;2023-07-24T15:05:10;2.70;;;2.50;;